Forside
METAR-TAF:

METAR-TAF

Lufthavne :

Poznań, Polen

Breddekreds: 52-25N, længdekreds: 016-50E, højde: 86 m

Aktuelle vejr

Denne rapport blev lavet for 26 minutter siden, kl. 00:00 UTC
Vind 7 kt fra vest
Temperatur 15°C
Fugtighed 77%
Tryk 1024 hPa
Sigt 10 km eller mere
Brudte skyer i en højde af 4300 ft

METAR: EPPO 130000Z 26007KT 9999 BKN043 15/11 Q1024

Tid: 02:26 (00:26 UTC)

Vejrudsigter

Denne rapport blev lavet for 56 minutter siden, kl. 23:30 UTC
Foreløbig gælder fra 13 på 00 UTC til 13 på 24 UTC
Vind 5 kt fra vestsydvest
Sigt 10 km eller mere
Overskyet i en højde af 4000 ft
ændring
fra 13 på 05 UTC til 13 på 08 UTC
Vind 15 kt fra vest
Midlertidig
fra 13 på 08 UTC til 13 på 16 UTC
Vind 18 kt fra vest med vindstød på up til 28 kt
ændring
fra 13 på 16 UTC til 13 på 19 UTC
Vind 5 kt fra sydsydvest

TAF: EPPO 122330Z 1300/1324 24005KT 9999 OVC040 BECMG 1305/1308 26015KT TEMPO 1308/1316 28018G28KT BECMG 1316/1319 20005KT

Vejrobservationer og prognoser fra mere end 4000 lufthavne (METAR og TAF).

De gule og røde prikker repræsenterer de meteorologiske stationer.

Flyt musen over at se navnet på stationen.

Så klik over at se vejr observationer og prognoser.

At skifte det kort: Klik på de grønne knapper med et sort kors for at zoome ind; på den grønne knap med en bindestreg for at zoome ud; eller på de grønne pile for tilstødende kort.


METAR-TAF: